Robore, Bolivia
Current Conditions -  °F | °C
As of 4:00 PM on Tuesday 21 Oct 2014 (Local Time) from SLRB Reporting Station
Scattered Clouds Scattered Clouds  
Wind Chill: 91°   Ceiling: Unl
Heat Index: 98°   Visibility: 6mi
Dew Point: 72°   Wind: 0mph
Humidity: 52%   Direction: NA
Pressure: 29.91"   Gusts: NA
Location:  18.33°S, 59.76°W
Report Text: SLRB 212000Z 00000KT 9999 SCT020 33/22 Q1013
Loading
Personal Weather Stations






























Interactive Weather Map
Tropical Storm Tracking
New forecast layout! Learn more

10-Day Weather Forecast

Advertisements
Track Severe Weather on mobile